createdAt,value
2019-03-19T00:00:10.052Z,11.07
2019-03-19T00:02:38.526Z,9.80
2019-03-19T00:05:07.075Z,12.23
2019-03-19T00:07:35.598Z,12.07
2019-03-19T00:10:06.517Z,9.07
2019-03-19T00:12:34.920Z,9.77
2019-03-19T00:15:03.488Z,10.63
2019-03-19T00:17:31.895Z,12.87
2019-03-19T00:20:00.400Z,11.67
2019-03-19T00:22:28.885Z,10.50
2019-03-19T00:24:57.382Z,11.30
2019-03-19T00:27:25.823Z,9.83
2019-03-19T00:29:54.269Z,12.60
2019-03-19T00:32:22.677Z,12.10
2019-03-19T00:34:51.086Z,11.63
2019-03-19T00:37:19.553Z,11.47
2019-03-19T00:39:47.962Z,10.50
2019-03-19T00:42:16.377Z,11.77
2019-03-19T00:44:44.791Z,13.10
2019-03-19T00:47:13.201Z,11.00
2019-03-19T00:49:41.607Z,10.83
2019-03-19T00:52:10.023Z,10.83
2019-03-19T00:54:38.469Z,11.63
2019-03-19T00:57:06.872Z,12.60
2019-03-19T00:59:35.283Z,12.73
2019-03-19T01:02:03.986Z,11.13
2019-03-19T01:04:32.391Z,10.67
2019-03-19T01:07:00.806Z,10.50
2019-03-19T01:09:29.211Z,10.60
2019-03-19T01:11:57.631Z,12.53
2019-03-19T01:14:26.044Z,10.90
2019-03-19T01:16:54.449Z,11.40
2019-03-19T01:19:22.854Z,11.80
2019-03-19T01:21:51.266Z,11.57
2019-03-19T01:24:19.674Z,13.80
2019-03-19T01:26:48.084Z,14.20
2019-03-19T01:29:16.570Z,13.30
2019-03-19T01:31:45.005Z,14.73
2019-03-19T01:34:13.437Z,14.77
2019-03-19T01:36:41.852Z,17.00
2019-03-19T01:39:10.268Z,13.67
2019-03-19T01:41:38.678Z,14.40
2019-03-19T01:44:07.151Z,13.80
2019-03-19T01:46:35.559Z,14.33
2019-03-19T01:49:03.971Z,15.20
2019-03-19T01:51:32.377Z,14.80
2019-03-19T01:54:00.880Z,16.97
2019-03-19T01:56:29.273Z,13.97
2019-03-19T01:58:57.680Z,12.67
2019-03-19T02:01:26.083Z,16.93
2019-03-19T02:03:54.489Z,16.57
2019-03-19T02:06:22.893Z,15.37
2019-03-19T02:08:51.309Z,16.30
2019-03-19T02:11:19.723Z,17.13
2019-03-19T02:13:48.130Z,14.63
2019-03-19T02:16:16.539Z,16.30
2019-03-19T02:18:44.950Z,14.93
2019-03-19T02:21:13.378Z,15.80
2019-03-19T02:23:41.826Z,17.50
2019-03-19T02:26:16.403Z,18.67
2019-03-19T02:28:40.442Z,17.60
2019-03-19T02:31:08.859Z,15.00
2019-03-19T02:33:37.269Z,17.57
2019-03-19T02:36:05.681Z,18.50
2019-03-19T02:38:34.419Z,17.67
2019-03-19T02:41:02.828Z,18.37
2019-03-19T02:43:31.319Z,19.17
2019-03-19T02:45:59.726Z,19.37
2019-03-19T02:48:28.374Z,19.87
2019-03-19T02:50:56.778Z,24.90
2019-03-19T02:53:25.196Z,20.43
2019-03-19T02:55:53.778Z,21.50
2019-03-19T02:58:22.182Z,19.77
2019-03-19T03:00:50.675Z,20.90
2019-03-19T03:03:19.111Z,21.10
2019-03-19T03:05:47.598Z,18.13
2019-03-19T03:08:16.058Z,19.20
2019-03-19T03:10:44.576Z,19.07
2019-03-19T03:13:12.985Z,17.47
2019-03-19T03:15:41.560Z,19.73
2019-03-19T03:18:10.034Z,20.90
2019-03-19T03:20:38.446Z,20.03
2019-03-19T03:23:06.862Z,20.87
2019-03-19T03:25:35.274Z,20.57
2019-03-19T03:28:03.934Z,24.13
2019-03-19T03:30:32.461Z,18.90
2019-03-19T03:33:00.870Z,25.13
2019-03-19T03:35:29.296Z,21.00
2019-03-19T03:37:57.702Z,20.77
2019-03-19T03:40:26.198Z,21.67
2019-03-19T03:42:54.611Z,23.03
2019-03-19T03:45:25.703Z,23.10
2019-03-19T03:47:54.119Z,23.73
2019-03-19T03:50:22.575Z,26.50
2019-03-19T03:52:50.987Z,26.07
2019-03-19T03:55:20.281Z,24.37
2019-03-19T03:57:48.910Z,25.70
2019-03-19T04:00:24.086Z,28.07
2019-03-19T04:02:52.942Z,25.87
2019-03-19T04:05:21.447Z,24.37
2019-03-19T04:07:49.916Z,24.83
2019-03-19T04:10:19.108Z,25.30
2019-03-19T04:12:47.747Z,21.10
2019-03-19T04:15:17.090Z,23.40
2019-03-19T04:17:45.490Z,23.17
2019-03-19T04:20:14.857Z,22.07
2019-03-19T04:22:43.439Z,21.57
2019-03-19T04:25:12.021Z,20.83
2019-03-19T04:27:41.076Z,21.33
2019-03-19T04:30:14.586Z,21.43
2019-03-19T04:32:43.004Z,20.73
2019-03-19T04:35:11.426Z,19.57
2019-03-19T04:37:39.842Z,25.27
2019-03-19T04:40:15.794Z,20.53
2019-03-19T04:42:44.761Z,26.47
2019-03-19T04:45:14.303Z,23.63
2019-03-19T04:47:42.722Z,23.27
2019-03-19T04:50:13.601Z,21.33
2019-03-19T04:52:42.086Z,21.50
2019-03-19T04:55:12.031Z,27.27
2019-03-19T04:57:40.450Z,27.90
2019-03-19T05:00:11.274Z,27.27
2019-03-19T05:02:39.739Z,25.37
2019-03-19T05:05:10.122Z,23.63
2019-03-19T05:07:38.538Z,22.63
2019-03-19T05:10:16.801Z,26.33
2019-03-19T05:12:45.402Z,27.80
2019-03-19T05:15:13.815Z,23.87
2019-03-19T05:17:42.231Z,29.60
2019-03-19T05:20:18.435Z,24.93
2019-03-19T05:22:46.887Z,24.93
2019-03-19T05:25:15.300Z,26.73
2019-03-19T05:27:43.732Z,23.73
2019-03-19T05:30:17.145Z,26.30
2019-03-19T05:32:45.565Z,27.60
2019-03-19T05:35:14.005Z,26.70
2019-03-19T05:37:42.410Z,25.43
2019-03-19T05:40:19.867Z,34.93
2019-03-19T05:42:48.278Z,31.27
2019-03-19T05:45:17.043Z,33.57
2019-03-19T05:47:45.462Z,34.60
2019-03-19T05:50:15.790Z,30.73
2019-03-19T05:52:44.227Z,26.87
2019-03-19T05:55:12.713Z,29.57
2019-03-19T05:57:49.629Z,28.97
2019-03-19T06:00:19.889Z,25.80
2019-03-19T06:02:48.365Z,29.37
2019-03-19T06:05:16.814Z,28.90
2019-03-19T06:07:45.226Z,28.17
2019-03-19T06:10:14.786Z,31.10
2019-03-19T06:12:43.218Z,35.37
2019-03-19T06:15:13.169Z,34.03
2019-03-19T06:17:41.579Z,29.97
2019-03-19T06:20:13.135Z,26.83
2019-03-19T06:22:41.650Z,27.10
2019-03-19T06:25:11.517Z,29.00
2019-03-19T06:27:39.922Z,23.83
2019-03-19T06:30:21.286Z,22.70
2019-03-19T06:32:49.694Z,24.70
2019-03-19T06:35:18.368Z,27.60
2019-03-19T06:37:46.789Z,22.47
2019-03-19T06:40:20.107Z,21.10
2019-03-19T06:42:48.588Z,20.37
2019-03-19T06:45:17.940Z,21.23
2019-03-19T06:47:46.345Z,22.13
2019-03-19T06:50:18.374Z,25.53
2019-03-19T06:52:46.782Z,21.57
2019-03-19T06:55:16.230Z,23.13
2019-03-19T06:57:44.742Z,23.00
2019-03-19T07:00:17.683Z,19.33
2019-03-19T07:02:46.215Z,20.37
2019-03-19T07:05:16.266Z,21.10
2019-03-19T07:07:44.675Z,19.40
2019-03-19T07:10:14.427Z,17.97
2019-03-19T07:12:43.010Z,22.13
2019-03-19T07:15:18.095Z,16.47
2019-03-19T07:17:46.934Z,14.17
2019-03-19T07:20:22.831Z,14.73
2019-03-19T07:22:51.238Z,14.10
2019-03-19T07:25:19.662Z,14.87
2019-03-19T07:27:48.070Z,14.17
2019-03-19T07:30:23.976Z,13.90
2019-03-19T07:32:52.377Z,12.73
2019-03-19T07:35:20.842Z,13.70
2019-03-19T07:37:49.523Z,13.83
2019-03-19T07:40:18.099Z,10.50
2019-03-19T07:42:46.594Z,11.17
2019-03-19T07:45:17.414Z,9.47
2019-03-19T07:47:45.660Z,8.97
2019-03-19T07:50:15.903Z,9.03
2019-03-19T07:52:44.482Z,8.10
2019-03-19T07:55:12.974Z,8.17
2019-03-19T07:57:41.373Z,8.95
2019-03-19T08:00:13.123Z,6.80
2019-03-19T08:02:41.534Z,7.25
2019-03-19T08:05:10.983Z,6.42
2019-03-19T08:07:39.398Z,9.68
2019-03-19T08:10:10.069Z,8.58
2019-03-19T08:12:38.496Z,7.83
2019-03-19T08:15:15.082Z,9.30
2019-03-19T08:17:43.646Z,7.58
2019-03-19T08:20:17.786Z,7.42
2019-03-19T08:22:46.210Z,9.13
2019-03-19T08:25:15.423Z,9.03
2019-03-19T08:27:43.898Z,9.35
2019-03-19T08:30:26.325Z,7.00
2019-03-19T08:32:54.731Z,9.23
2019-03-19T08:35:23.268Z,8.00
2019-03-19T08:37:51.678Z,9.58
2019-03-19T08:40:20.522Z,8.05
2019-03-19T08:42:49.039Z,9.43
2019-03-19T08:45:19.779Z,11.22
2019-03-19T08:47:48.198Z,11.05
2019-03-19T08:50:21.009Z,9.13
2019-03-19T08:52:49.432Z,7.20
2019-03-19T08:55:17.906Z,11.10
2019-03-19T08:57:46.319Z,10.38
2019-03-19T09:00:23.615Z,10.48
2019-03-19T09:02:52.022Z,8.80
2019-03-19T09:05:20.429Z,9.65
2019-03-19T09:07:48.853Z,8.25
2019-03-19T09:10:18.022Z,9.53
2019-03-19T09:12:48.507Z,9.18
2019-03-19T09:15:26.692Z,12.80
2019-03-19T09:17:55.096Z,9.08
2019-03-19T09:20:23.542Z,10.72
2019-03-19T09:22:51.962Z,10.95
2019-03-19T09:25:20.370Z,9.48
2019-03-19T09:27:48.790Z,10.75
2019-03-19T09:30:21.349Z,10.98
2019-03-19T09:32:49.771Z,11.15
2019-03-19T09:35:18.261Z,10.32
2019-03-19T09:37:57.678Z,11.75
2019-03-19T09:40:18.046Z,8.38
2019-03-19T09:42:46.468Z,12.35
2019-03-19T09:45:18.434Z,8.33
2019-03-19T09:47:47.315Z,12.00
2019-03-19T09:50:17.201Z,10.17
2019-03-19T09:52:45.774Z,9.77
2019-03-19T09:55:14.726Z,9.77
2019-03-19T09:57:43.137Z,8.83
2019-03-19T10:00:19.981Z,11.17
2019-03-19T10:02:48.547Z,9.47
2019-03-19T10:05:17.127Z,9.43
2019-03-19T10:07:45.549Z,9.97
2019-03-19T10:10:22.035Z,8.87
2019-03-19T10:12:50.480Z,6.73
2019-03-19T10:15:19.219Z,7.17
2019-03-19T10:17:47.634Z,8.18
2019-03-19T10:20:24.167Z,11.25
2019-03-19T10:22:52.678Z,6.17
2019-03-19T10:25:21.094Z,7.13
2019-03-19T10:27:49.510Z,12.20
2019-03-19T10:30:24.479Z,9.03
2019-03-19T10:32:52.950Z,7.33
2019-03-19T10:35:21.484Z,7.03
2019-03-19T10:37:49.884Z,5.33
2019-03-19T10:40:20.219Z,6.27
2019-03-19T10:42:49.075Z,4.43
2019-03-19T10:45:19.743Z,4.17
2019-03-19T10:47:48.181Z,5.25
2019-03-19T10:50:25.774Z,6.78
2019-03-19T10:52:54.268Z,6.85
2019-03-19T10:55:23.021Z,5.65
2019-03-19T10:57:51.431Z,5.37
2019-03-19T11:00:26.549Z,4.80
2019-03-19T11:02:55.217Z,7.12
2019-03-19T11:05:24.425Z,6.00
2019-03-19T11:07:53.074Z,4.47
2019-03-19T11:10:21.564Z,5.40
2019-03-19T11:12:49.971Z,4.80
2019-03-19T11:15:20.627Z,5.22
2019-03-19T11:17:49.073Z,6.67
2019-03-19T11:20:18.510Z,5.92
2019-03-19T11:22:47.182Z,4.28
2019-03-19T11:25:17.762Z,5.35
2019-03-19T11:27:46.187Z,6.90
2019-03-19T11:30:17.746Z,5.77
2019-03-19T11:32:46.319Z,3.97
2019-03-19T11:35:14.880Z,6.30
2019-03-19T11:37:43.278Z,6.43
2019-03-19T11:40:14.094Z,4.83
2019-03-19T11:42:42.513Z,6.33
2019-03-19T11:45:15.924Z,5.57
2019-03-19T11:47:44.326Z,6.67
2019-03-19T11:50:24.497Z,7.00
2019-03-19T11:52:53.179Z,7.77
2019-03-19T11:55:22.157Z,7.93
2019-03-19T11:57:50.851Z,7.63
2019-03-19T12:00:26.493Z,7.13
2019-03-19T12:02:54.897Z,4.70
2019-03-19T12:05:23.327Z,5.17
2019-03-19T12:07:51.732Z,5.53
2019-03-19T12:10:20.474Z,5.97
2019-03-19T12:12:48.888Z,6.10
2019-03-19T12:15:17.294Z,5.17
2019-03-19T12:17:45.720Z,6.17
2019-03-19T12:20:14.861Z,4.80
2019-03-19T12:22:43.346Z,6.27
2019-03-19T12:25:12.785Z,3.70
2019-03-19T12:27:41.262Z,3.60
2019-03-19T12:30:22.559Z,4.20
2019-03-19T12:32:48.418Z,7.60
2019-03-19T12:35:20.814Z,5.13
2019-03-19T12:37:49.289Z,8.80
2019-03-19T12:40:21.418Z,4.00
2019-03-19T12:42:49.836Z,7.40
2019-03-19T12:45:20.522Z,7.03
2019-03-19T12:47:49.002Z,7.43
2019-03-19T12:50:20.551Z,6.27
2019-03-19T12:52:49.005Z,4.90
2019-03-19T12:55:17.424Z,7.03
2019-03-19T12:57:46.148Z,4.17
2019-03-19T13:00:34.006Z,4.33
2019-03-19T13:02:55.967Z,3.53
2019-03-19T13:05:24.374Z,5.73
2019-03-19T13:07:52.786Z,4.47
2019-03-19T13:10:23.102Z,6.07
2019-03-19T13:12:51.519Z,6.07
2019-03-19T13:15:20.665Z,5.03
2019-03-19T13:17:49.251Z,5.63
2019-03-19T13:20:18.703Z,6.13
2019-03-19T13:22:47.126Z,4.60
2019-03-19T13:25:24.667Z,4.33
2019-03-19T13:27:53.106Z,5.73
2019-03-19T13:30:26.330Z,5.50
2019-03-19T13:32:54.753Z,4.77
2019-03-19T13:35:23.264Z,7.03
2019-03-19T13:37:51.670Z,5.43
2019-03-19T13:40:20.352Z,8.17
2019-03-19T13:42:48.834Z,5.27
2019-03-19T13:45:18.681Z,5.37
2019-03-19T13:47:47.265Z,6.10
2019-03-19T13:50:19.330Z,4.70
2019-03-19T13:52:47.877Z,8.87
2019-03-19T13:55:20.946Z,5.33
2019-03-19T13:57:49.371Z,5.20
2019-03-19T14:00:18.516Z,4.70
2019-03-19T14:02:47.261Z,7.23
2019-03-19T14:05:16.456Z,6.77
2019-03-19T14:07:45.213Z,5.93
2019-03-19T14:10:21.012Z,5.17
2019-03-19T14:12:49.427Z,9.87
2019-03-19T14:15:25.282Z,9.03
2019-03-19T14:17:53.763Z,6.10
2019-03-19T14:20:22.230Z,9.47
2019-03-19T14:22:50.649Z,5.17
2019-03-19T14:25:19.049Z,10.17
2019-03-19T14:27:47.455Z,5.23
2019-03-19T14:30:20.295Z,8.13
2019-03-19T14:32:48.713Z,6.57
2019-03-19T14:35:17.106Z,4.07
2019-03-19T14:37:45.653Z,7.03
2019-03-19T14:40:26.699Z,4.63
2019-03-19T14:42:55.239Z,4.73
2019-03-19T14:45:23.641Z,6.63
2019-03-19T14:47:52.049Z,6.17
2019-03-19T14:50:25.571Z,6.13
2019-03-19T14:52:54.130Z,5.67
2019-03-19T14:55:22.608Z,8.10
2019-03-19T14:57:51.216Z,6.20
2019-03-19T15:00:21.817Z,7.10
2019-03-19T15:02:50.222Z,6.97
2019-03-19T15:05:18.704Z,5.50
2019-03-19T15:07:47.108Z,4.47
2019-03-19T15:10:17.625Z,5.90
2019-03-19T15:12:46.233Z,6.87
2019-03-19T15:15:16.187Z,9.23
2019-03-19T15:17:44.696Z,4.70
2019-03-19T15:20:18.733Z,5.83
2019-03-19T15:22:47.309Z,5.10
2019-03-19T15:25:15.991Z,4.90
2019-03-19T15:27:44.393Z,5.17
2019-03-19T15:30:17.577Z,4.80
2019-03-19T15:32:47.190Z,4.03
2019-03-19T15:35:15.595Z,6.43
2019-03-19T15:37:44.016Z,6.37
2019-03-19T15:40:19.439Z,5.73
2019-03-19T15:42:47.955Z,8.20
2019-03-19T15:45:21.706Z,7.77
2019-03-19T15:47:50.115Z,7.07
2019-03-19T15:50:18.562Z,7.80
2019-03-19T15:52:46.998Z,5.30
2019-03-19T15:55:15.652Z,5.83
2019-03-19T15:57:44.245Z,10.13
2019-03-19T16:00:14.864Z,9.87
2019-03-19T16:02:43.794Z,14.63
2019-03-19T16:05:13.189Z,6.70
2019-03-19T16:07:41.861Z,9.47
2019-03-19T16:10:14.145Z,11.83
2019-03-19T16:12:42.551Z,7.87
2019-03-19T16:15:13.279Z,8.10
2019-03-19T16:17:41.678Z,4.70
2019-03-19T16:20:12.428Z,3.70
2019-03-19T16:22:40.846Z,4.87
2019-03-19T16:25:09.427Z,5.57
2019-03-19T16:27:37.915Z,4.37
2019-03-19T16:30:17.049Z,7.17
2019-03-19T16:32:45.444Z,4.97
2019-03-19T16:35:14.291Z,6.40
2019-03-19T16:37:42.701Z,4.70
2019-03-19T16:40:14.107Z,5.20
2019-03-19T16:42:42.530Z,4.30
2019-03-19T16:45:11.569Z,8.20
2019-03-19T16:47:39.973Z,7.30
2019-03-19T16:50:18.988Z,8.03
2019-03-19T16:52:47.464Z,5.73
2019-03-19T16:55:16.808Z,5.07
2019-03-19T16:57:45.213Z,5.13
2019-03-19T17:00:15.854Z,5.50
2019-03-19T17:02:44.265Z,9.20
2019-03-19T17:05:14.607Z,8.90
2019-03-19T17:07:43.015Z,5.83
2019-03-19T17:10:16.612Z,4.80
2019-03-19T17:12:45.014Z,9.10
2019-03-19T17:15:17.701Z,8.60
2019-03-19T17:17:46.280Z,10.97
2019-03-19T17:20:15.719Z,9.40
2019-03-19T17:22:44.124Z,9.33
2019-03-19T17:25:24.414Z,6.73
2019-03-19T17:27:52.830Z,9.77
2019-03-19T17:30:25.566Z,14.17
2019-03-19T17:32:53.977Z,17.30
2019-03-19T17:35:22.396Z,16.97
2019-03-19T17:37:50.811Z,18.70
2019-03-19T17:40:19.214Z,15.83
2019-03-19T17:42:47.638Z,13.03
2019-03-19T17:45:16.682Z,10.83
2019-03-19T17:47:45.166Z,6.77
2019-03-19T17:50:21.821Z,6.63
2019-03-19T17:52:51.832Z,8.20
2019-03-19T17:55:20.443Z,8.43
2019-03-19T17:57:48.958Z,10.30
2019-03-19T18:00:28.196Z,6.10
2019-03-19T18:02:56.621Z,5.43
2019-03-19T18:05:25.026Z,7.17
2019-03-19T18:07:53.438Z,6.73
2019-03-19T18:10:22.012Z,8.53
2019-03-19T18:12:50.427Z,6.47
2019-03-19T18:15:19.462Z,5.83
2019-03-19T18:17:48.117Z,11.63
2019-03-19T18:20:17.262Z,11.47
2019-03-19T18:22:45.851Z,11.93
2019-03-19T18:25:21.170Z,11.43
2019-03-19T18:27:49.590Z,10.33
2019-03-19T18:30:24.862Z,9.23
2019-03-19T18:32:53.347Z,11.50
2019-03-19T18:35:21.778Z,10.23
2019-03-19T18:37:50.606Z,13.77
2019-03-19T18:40:19.989Z,6.80
2019-03-19T18:42:48.397Z,6.83
2019-03-19T18:45:17.740Z,6.83
2019-03-19T18:47:46.145Z,4.30
2019-03-19T18:50:15.679Z,5.70
2019-03-19T18:52:44.079Z,8.10
2019-03-19T18:55:12.633Z,12.43
2019-03-19T18:57:41.693Z,11.10
2019-03-19T19:00:17.134Z,9.43
2019-03-19T19:02:50.103Z,16.47
2019-03-19T19:05:19.640Z,11.83
2019-03-19T19:07:48.041Z,11.57
2019-03-19T19:10:17.386Z,13.20
2019-03-19T19:12:45.792Z,10.77
2019-03-19T19:15:21.981Z,11.80
2019-03-19T19:17:50.381Z,10.10
2019-03-19T19:20:19.522Z,14.87
2019-03-19T19:22:48.008Z,15.67
2019-03-19T19:25:21.614Z,13.53
2019-03-19T19:27:50.022Z,18.70
2019-03-19T19:30:22.801Z,22.27
2019-03-19T19:33:00.804Z,18.00
2019-03-19T19:35:21.444Z,17.20
2019-03-19T19:37:49.854Z,13.40
2019-03-19T19:40:18.797Z,10.30
2019-03-19T19:42:47.197Z,13.50
2019-03-19T19:45:16.539Z,13.23
2019-03-19T19:47:44.945Z,14.20
2019-03-19T19:50:19.979Z,14.47
2019-03-19T19:52:48.446Z,14.63
2019-03-19T19:55:16.880Z,11.63
2019-03-19T19:57:45.410Z,12.57
2019-03-19T20:00:23.341Z,11.50
2019-03-19T20:02:51.745Z,13.83
2019-03-19T20:05:20.163Z,18.90
2019-03-19T20:07:48.570Z,17.03
2019-03-19T20:10:22.102Z,26.73
2019-03-19T20:12:50.509Z,21.93
2019-03-19T20:15:18.911Z,18.27
2019-03-19T20:17:47.317Z,21.07
2019-03-19T20:20:22.726Z,12.03
2019-03-19T20:22:51.130Z,15.70
2019-03-19T20:25:19.538Z,14.13
2019-03-19T20:27:47.950Z,13.27
2019-03-19T20:30:18.591Z,16.70
2019-03-19T20:32:47.001Z,10.27
2019-03-19T20:35:15.411Z,12.47
2019-03-19T20:37:43.816Z,11.53
2019-03-19T20:40:13.864Z,14.40
2019-03-19T20:42:42.261Z,11.20
2019-03-19T20:45:15.615Z,10.80
2019-03-19T20:47:44.095Z,20.77
2019-03-19T20:50:24.278Z,18.77
2019-03-19T20:52:52.858Z,21.13
2019-03-19T20:55:21.267Z,16.20
2019-03-19T20:57:49.752Z,15.67
2019-03-19T21:00:18.700Z,15.60
2019-03-19T21:02:47.106Z,12.77
2019-03-19T21:05:15.564Z,12.77
2019-03-19T21:07:43.970Z,14.73
2019-03-19T21:10:19.700Z,13.87
2019-03-19T21:12:48.605Z,16.03
2019-03-19T21:15:27.290Z,14.57
2019-03-19T21:17:55.753Z,15.87
2019-03-19T21:20:24.457Z,13.63
2019-03-19T21:22:52.865Z,17.50
2019-03-19T21:25:21.270Z,13.63
2019-03-19T21:27:49.750Z,12.87
2019-03-19T21:30:24.993Z,15.03
2019-03-19T21:32:53.411Z,12.30
2019-03-19T21:35:25.434Z,10.97
2019-03-19T21:37:53.911Z,8.83
2019-03-19T21:40:22.319Z,10.37
2019-03-19T21:42:50.732Z,12.43
2019-03-19T21:45:22.851Z,10.13
2019-03-19T21:47:51.479Z,7.27
2019-03-19T21:50:24.009Z,5.00
2019-03-19T21:52:52.434Z,7.03
2019-03-19T21:55:20.907Z,6.30
2019-03-19T21:57:49.314Z,6.03
2019-03-19T22:00:22.644Z,8.70
2019-03-19T22:02:51.047Z,10.40
2019-03-19T22:05:19.455Z,8.03
2019-03-19T22:07:47.868Z,7.33
2019-03-19T22:10:23.189Z,11.00
2019-03-19T22:12:51.767Z,5.93
2019-03-19T22:15:26.697Z,8.33
2019-03-19T22:17:55.144Z,7.67
2019-03-19T22:20:23.598Z,9.23
2019-03-19T22:22:52.422Z,9.63
2019-03-19T22:25:20.828Z,7.73
2019-03-19T22:27:49.223Z,9.33
2019-03-19T22:30:18.901Z,8.77
2019-03-19T22:32:47.507Z,11.53
2019-03-19T22:35:15.969Z,9.30
2019-03-19T22:37:44.380Z,8.13
2019-03-19T22:40:19.038Z,10.27
2019-03-19T22:42:47.614Z,9.53
2019-03-19T22:45:17.153Z,9.03
2019-03-19T22:47:45.558Z,8.60
2019-03-19T22:50:15.401Z,7.50
2019-03-19T22:52:43.987Z,10.07
2019-03-19T22:55:13.532Z,8.00
2019-03-19T22:57:42.215Z,6.33
2019-03-19T23:00:13.774Z,5.20
2019-03-19T23:02:42.173Z,6.90
2019-03-19T23:05:10.817Z,7.03
2019-03-19T23:07:39.227Z,7.70
2019-03-19T23:10:07.870Z,5.73
2019-03-19T23:12:36.274Z,6.33
2019-03-19T23:15:07.486Z,7.63
2019-03-19T23:17:35.889Z,11.77
2019-03-19T23:20:07.443Z,8.63
2019-03-19T23:22:35.847Z,7.27
2019-03-19T23:25:05.894Z,7.83
2019-03-19T23:27:34.293Z,7.03
2019-03-19T23:30:02.866Z,4.90
2019-03-19T23:32:31.274Z,10.53
2019-03-19T23:34:59.685Z,7.53
2019-03-19T23:37:28.083Z,7.77
2019-03-19T23:39:56.497Z,9.53
2019-03-19T23:42:24.902Z,4.70
2019-03-19T23:44:53.307Z,8.87
2019-03-19T23:47:21.713Z,6.33
2019-03-19T23:49:50.126Z,7.60
2019-03-19T23:52:18.527Z,4.97
2019-03-19T23:54:46.941Z,8.60
2019-03-19T23:57:15.341Z,7.13
2019-03-19T23:59:43.750Z,7.47
